createdAt,value
2022-11-22T00:01:32.993Z,99125.00
2022-11-22T00:07:34.944Z,99141.06
2022-11-22T00:13:36.698Z,99159.16
2022-11-22T00:19:39.575Z,99179.19
2022-11-22T00:25:41.242Z,99166.03
2022-11-22T00:31:42.931Z,99156.31
2022-11-22T00:37:44.697Z,99052.06
2022-11-22T00:43:46.362Z,99198.97
2022-11-22T00:49:48.042Z,99142.50
2022-11-22T00:55:49.868Z,99188.00
2022-11-22T01:01:51.579Z,99172.44
2022-11-22T01:07:54.080Z,99125.19
2022-11-22T01:13:55.755Z,99214.03
2022-11-22T01:19:57.459Z,99225.78
2022-11-22T01:25:59.509Z,99095.47
2022-11-22T01:32:01.203Z,99166.47
2022-11-22T01:38:03.067Z,99152.94
2022-11-22T01:44:25.220Z,99241.72
2022-11-22T01:50:28.383Z,99174.66
2022-11-22T01:56:30.919Z,99230.47
2022-11-22T02:02:34.848Z,99234.19
2022-11-22T02:08:42.624Z,99246.75
2022-11-22T02:14:45.040Z,99235.19
2022-11-22T02:20:46.847Z,99183.19
2022-11-22T02:26:48.521Z,99231.56
2022-11-22T02:32:50.256Z,99251.63
2022-11-22T02:38:51.942Z,99191.50
2022-11-22T02:44:53.710Z,99250.84
2022-11-22T02:50:55.370Z,99228.97
2022-11-22T02:56:57.132Z,99148.00
2022-11-22T03:02:58.926Z,99197.09
2022-11-22T03:09:00.719Z,99239.44
2022-11-22T03:15:02.400Z,99247.69
2022-11-22T03:21:05.896Z,99258.78
2022-11-22T03:27:07.627Z,99204.56
2022-11-22T03:33:09.440Z,99274.84
2022-11-22T03:39:11.112Z,99258.53
2022-11-22T03:45:12.743Z,99270.91
2022-11-22T03:51:14.441Z,99243.38
2022-11-22T03:57:17.501Z,99292.72
2022-11-22T04:03:19.147Z,99204.50
2022-11-22T04:09:20.931Z,99269.69
2022-11-22T04:15:22.640Z,99226.59
2022-11-22T04:21:36.445Z,99272.53
2022-11-22T04:27:38.147Z,99225.88
2022-11-22T04:33:39.848Z,99333.81
2022-11-22T04:39:41.519Z,99300.50
2022-11-22T04:45:43.915Z,99310.78
2022-11-22T04:52:04.052Z,99222.47
2022-11-22T04:58:05.828Z,99313.53
2022-11-22T05:04:07.477Z,99282.00
2022-11-22T05:10:10.015Z,99313.28
2022-11-22T05:16:13.905Z,99322.94
2022-11-22T05:22:15.546Z,99332.50
2022-11-22T05:28:17.208Z,99343.13
2022-11-22T05:34:18.858Z,99292.84
2022-11-22T05:40:20.516Z,99280.78
2022-11-22T05:46:25.491Z,99345.19
2022-11-22T05:52:27.307Z,99234.13
2022-11-22T05:58:28.999Z,99209.63
2022-11-22T06:04:30.782Z,99303.50
2022-11-22T06:10:37.215Z,99329.88
2022-11-22T06:16:38.967Z,99353.19
2022-11-22T06:22:40.680Z,99371.06
2022-11-22T06:28:43.053Z,99322.59
2022-11-22T06:34:44.927Z,99237.69
2022-11-22T06:40:46.633Z,99363.44
2022-11-22T06:46:48.302Z,99372.03
2022-11-22T06:52:53.309Z,99315.59
2022-11-22T06:58:55.839Z,99373.50
2022-11-22T07:05:24.170Z,99269.81
2022-11-22T07:11:28.158Z,99345.47
2022-11-22T07:17:29.835Z,99380.75
2022-11-22T07:23:31.702Z,99367.69
2022-11-22T07:29:33.374Z,99357.28
2022-11-22T07:35:36.124Z,99333.69
2022-11-22T07:41:37.788Z,99234.81
2022-11-22T07:47:39.466Z,99351.22
2022-11-22T07:53:41.148Z,99296.38
2022-11-22T07:59:42.843Z,99340.94
2022-11-22T08:05:44.604Z,99314.53
2022-11-22T08:11:47.620Z,99374.91
2022-11-22T08:17:49.360Z,99382.19
2022-11-22T08:23:51.068Z,99372.00
2022-11-22T08:29:52.796Z,99371.16
2022-11-22T08:35:54.630Z,99363.50
2022-11-22T08:41:56.259Z,99274.03
2022-11-22T08:47:58.724Z,99385.97
2022-11-22T08:54:00.457Z,99359.53
2022-11-22T09:00:02.375Z,99386.84
2022-11-22T09:12:29.315Z,99374.72
2022-11-22T09:18:31.488Z,99378.88
2022-11-22T09:24:33.247Z,99402.22
2022-11-22T09:30:34.918Z,99401.34
2022-11-22T09:36:36.794Z,99306.81
2022-11-22T09:43:04.768Z,99399.44
2022-11-22T09:49:09.337Z,99402.31
2022-11-22T09:55:33.676Z,99392.19
2022-11-22T10:01:41.295Z,99346.31
2022-11-22T10:07:49.273Z,99395.63
2022-11-22T10:13:56.559Z,99336.81
2022-11-22T10:20:15.279Z,99274.84
2022-11-22T10:26:33.970Z,99399.41
2022-11-22T10:32:42.858Z,99413.09
2022-11-22T10:38:47.532Z,99408.50
2022-11-22T10:45:07.984Z,99405.75
2022-11-22T10:51:28.338Z,99404.06
2022-11-22T10:58:03.015Z,99356.84
2022-11-22T11:04:07.322Z,99322.50
2022-11-22T11:10:29.241Z,99382.72
2022-11-22T11:16:37.884Z,99311.69
2022-11-22T11:29:48.433Z,99422.09
2022-11-22T11:35:52.402Z,99395.09
2022-11-22T11:41:55.000Z,99447.72
2022-11-22T11:47:57.078Z,99408.03
2022-11-22T11:54:06.480Z,99448.97
2022-11-22T12:00:22.274Z,99456.75
2022-11-22T12:06:29.684Z,99422.28
2022-11-22T12:12:54.701Z,99458.28
2022-11-22T12:19:27.293Z,99443.19
2022-11-22T12:25:36.995Z,99418.38
2022-11-22T12:32:00.934Z,99437.03
2022-11-22T12:38:14.812Z,99358.78
2022-11-22T12:44:20.701Z,99436.19
2022-11-22T12:50:37.418Z,99357.06
2022-11-22T12:56:57.770Z,99422.53
2022-11-22T13:03:05.863Z,99411.69
2022-11-22T13:09:15.582Z,99381.19
2022-11-22T13:15:32.729Z,99345.00
2022-11-22T13:21:53.689Z,99410.00
2022-11-22T13:28:01.405Z,99314.47
2022-11-22T13:34:27.249Z,99305.50
2022-11-22T13:40:31.323Z,99408.25
2022-11-22T13:46:54.062Z,99415.53
2022-11-22T13:52:55.964Z,99338.63
2022-11-22T13:59:04.998Z,99370.38
2022-11-22T14:05:20.009Z,99315.44
2022-11-22T14:11:52.320Z,99405.00
2022-11-22T14:18:26.193Z,99381.31
2022-11-22T14:24:49.848Z,99412.66
2022-11-22T14:30:54.118Z,99411.28
2022-11-22T14:37:11.280Z,99425.69
2022-11-22T14:43:34.145Z,99403.41
2022-11-22T14:49:49.880Z,99370.28
2022-11-22T14:55:57.609Z,99281.69
2022-11-22T15:02:36.504Z,99451.00
2022-11-22T15:09:33.425Z,99393.00
2022-11-22T16:01:23.215Z,99465.13
2022-11-22T16:07:37.118Z,99489.81
2022-11-22T16:13:40.223Z,99388.34
2022-11-22T16:19:41.943Z,99495.00
2022-11-22T16:25:49.036Z,99472.88
2022-11-22T16:31:50.804Z,99492.00
2022-11-22T16:37:52.831Z,99495.38
2022-11-22T16:44:02.256Z,99484.03
2022-11-22T16:50:04.184Z,99455.34
2022-11-22T16:56:06.662Z,99383.03
2022-11-22T17:02:13.281Z,99511.81
2022-11-22T17:08:18.336Z,99467.06
2022-11-22T17:14:20.228Z,99492.00
2022-11-22T17:20:22.015Z,99494.84
2022-11-22T17:26:24.667Z,99462.38
2022-11-22T17:32:26.503Z,99431.47
2022-11-22T17:38:28.551Z,99503.25
2022-11-22T17:44:30.637Z,99503.59
2022-11-22T17:50:32.773Z,99492.91
2022-11-22T17:56:36.829Z,99367.97
2022-11-22T18:02:39.084Z,99480.47
2022-11-22T18:08:46.583Z,99393.63
2022-11-22T18:14:50.418Z,99385.63
2022-11-22T18:20:54.962Z,99391.72
2022-11-22T18:26:59.889Z,99456.38
2022-11-22T18:33:03.529Z,99234.31
2022-11-22T18:39:05.608Z,99342.69
2022-11-22T18:45:09.137Z,99451.19
2022-11-22T18:51:12.380Z,99277.88
2022-11-22T18:57:23.989Z,99451.06
2022-11-22T19:03:39.303Z,99375.41
2022-11-22T19:09:44.466Z,99352.13
2022-11-22T19:15:46.984Z,99468.56
2022-11-22T19:21:50.043Z,99477.19
2022-11-22T19:27:52.757Z,99264.53
2022-11-22T19:33:55.376Z,99470.81
2022-11-22T19:39:59.844Z,99453.88
2022-11-22T19:46:03.573Z,99330.41
2022-11-22T19:52:07.244Z,99469.91
2022-11-22T19:58:12.137Z,99274.75
2022-11-22T20:04:16.185Z,99379.38
2022-11-22T20:10:18.840Z,99445.16
2022-11-22T20:16:24.425Z,99393.75
2022-11-22T20:22:29.130Z,99472.66
2022-11-22T20:28:31.643Z,99230.72
2022-11-22T20:34:35.147Z,99475.78
2022-11-22T20:40:37.811Z,99459.66
2022-11-22T20:46:45.174Z,99334.91
2022-11-22T20:52:47.579Z,99472.22
2022-11-22T20:58:51.781Z,99331.88
2022-11-22T21:04:53.884Z,99447.06
2022-11-22T21:11:09.572Z,99428.28
2022-11-22T21:17:37.553Z,99443.91
2022-11-22T21:23:35.600Z,99427.16
2022-11-22T21:29:38.418Z,99321.06
2022-11-22T21:35:45.018Z,99408.47
2022-11-22T21:42:02.224Z,99407.84
2022-11-22T21:48:05.727Z,99415.31
2022-11-22T21:54:18.437Z,99359.03
2022-11-22T22:00:20.601Z,99384.53
2022-11-22T22:06:25.822Z,99281.00
2022-11-22T22:12:27.907Z,99294.78
2022-11-22T22:18:35.649Z,99389.22
2022-11-22T22:24:37.740Z,99355.84
2022-11-22T22:30:40.825Z,99379.72
2022-11-22T22:36:42.911Z,99379.31
2022-11-22T22:42:44.940Z,99315.28
2022-11-22T22:48:48.186Z,99191.31
2022-11-22T22:54:50.799Z,99246.75
2022-11-22T23:00:52.774Z,99353.34
2022-11-22T23:06:54.988Z,99331.59
2022-11-22T23:12:56.886Z,99343.47
2022-11-22T23:18:58.641Z,99353.66
2022-11-22T23:25:00.421Z,99245.16
2022-11-22T23:31:15.679Z,99334.41
2022-11-22T23:37:17.474Z,99334.00
2022-11-22T23:43:19.222Z,99294.00
2022-11-22T23:49:20.982Z,99238.84
2022-11-22T23:55:22.950Z,99284.72
